sensor_id;sensor_type;location;lat;lon;timestamp;P1;durP1;ratioP1;P2;durP2;ratioP2
15383;SDS011;7790;53.022;12.968;2024-01-30T00:01:14;1.70;;;1.60;;
15383;SDS011;7790;53.022;12.968;2024-01-30T00:05:14;2.00;;;1.80;;
15383;SDS011;7790;53.022;12.968;2024-01-30T00:09:15;2.30;;;1.70;;
15383;SDS011;7790;53.022;12.968;2024-01-30T00:13:16;1.80;;;1.70;;
15383;SDS011;7790;53.022;12.968;2024-01-30T00:17:19;1.73;;;1.63;;
15383;SDS011;7790;53.022;12.968;2024-01-30T00:21:21;2.00;;;1.80;;
15383;SDS011;7790;53.022;12.968;2024-01-30T00:25:22;1.90;;;1.77;;
15383;SDS011;7790;53.022;12.968;2024-01-30T00:29:23;1.70;;;1.60;;
15383;SDS011;7790;53.022;12.968;2024-01-30T00:33:25;2.00;;;1.90;;
15383;SDS011;7790;53.022;12.968;2024-01-30T00:37:26;1.80;;;1.70;;
15383;SDS011;7790;53.022;12.968;2024-01-30T00:41:27;2.63;;;1.80;;
15383;SDS011;7790;53.022;12.968;2024-01-30T00:45:28;1.87;;;1.63;;
15383;SDS011;7790;53.022;12.968;2024-01-30T00:49:28;2.00;;;1.80;;
15383;SDS011;7790;53.022;12.968;2024-01-30T00:53:29;2.00;;;1.80;;
15383;SDS011;7790;53.022;12.968;2024-01-30T00:57:30;2.20;;;2.00;;
15383;SDS011;7790;53.022;12.968;2024-01-30T01:01:31;2.00;;;1.80;;
15383;SDS011;7790;53.022;12.968;2024-01-30T01:05:32;2.10;;;1.90;;
15383;SDS011;7790;53.022;12.968;2024-01-30T01:09:33;2.40;;;1.60;;
15383;SDS011;7790;53.022;12.968;2024-01-30T01:13:33;3.07;;;1.87;;
15383;SDS011;7790;53.022;12.968;2024-01-30T01:17:34;2.20;;;2.00;;
15383;SDS011;7790;53.022;12.968;2024-01-30T01:21:35;1.77;;;1.67;;
15383;SDS011;7790;53.022;12.968;2024-01-30T01:25:36;1.97;;;1.73;;
15383;SDS011;7790;53.022;12.968;2024-01-30T01:29:37;1.83;;;1.73;;
15383;SDS011;7790;53.022;12.968;2024-01-30T01:33:38;2.00;;;1.90;;
15383;SDS011;7790;53.022;12.968;2024-01-30T01:37:39;2.20;;;2.00;;
15383;SDS011;7790;53.022;12.968;2024-01-30T01:41:39;2.30;;;2.07;;
15383;SDS011;7790;53.022;12.968;2024-01-30T01:45:40;2.00;;;1.90;;
15383;SDS011;7790;53.022;12.968;2024-01-30T01:49:41;2.10;;;1.90;;
15383;SDS011;7790;53.022;12.968;2024-01-30T01:53:42;2.23;;;2.00;;
15383;SDS011;7790;53.022;12.968;2024-01-30T01:57:44;2.13;;;1.93;;
15383;SDS011;7790;53.022;12.968;2024-01-30T02:01:45;1.97;;;1.80;;
15383;SDS011;7790;53.022;12.968;2024-01-30T02:05:50;1.93;;;1.80;;
15383;SDS011;7790;53.022;12.968;2024-01-30T02:09:51;2.30;;;2.10;;
15383;SDS011;7790;53.022;12.968;2024-01-30T02:13:52;1.97;;;1.87;;
15383;SDS011;7790;53.022;12.968;2024-01-30T02:17:53;2.37;;;1.73;;
15383;SDS011;7790;53.022;12.968;2024-01-30T02:21:54;2.00;;;1.90;;
15383;SDS011;7790;53.022;12.968;2024-01-30T02:25:55;2.10;;;1.93;;
15383;SDS011;7790;53.022;12.968;2024-01-30T02:29:55;2.10;;;2.00;;
15383;SDS011;7790;53.022;12.968;2024-01-30T02:33:56;2.07;;;1.90;;
15383;SDS011;7790;53.022;12.968;2024-01-30T02:37:57;2.33;;;2.10;;
15383;SDS011;7790;53.022;12.968;2024-01-30T02:41:58;2.97;;;2.10;;
15383;SDS011;7790;53.022;12.968;2024-01-30T02:45:58;2.43;;;1.90;;
15383;SDS011;7790;53.022;12.968;2024-01-30T02:50:01;2.20;;;2.00;;
15383;SDS011;7790;53.022;12.968;2024-01-30T02:54:01;1.90;;;1.80;;
15383;SDS011;7790;53.022;12.968;2024-01-30T02:58:02;2.00;;;1.90;;
15383;SDS011;7790;53.022;12.968;2024-01-30T03:02:03;2.30;;;2.00;;
15383;SDS011;7790;53.022;12.968;2024-01-30T03:06:05;2.03;;;1.83;;
15383;SDS011;7790;53.022;12.968;2024-01-30T03:10:06;2.17;;;1.97;;
15383;SDS011;7790;53.022;12.968;2024-01-30T03:14:07;2.03;;;1.83;;
15383;SDS011;7790;53.022;12.968;2024-01-30T03:18:11;2.10;;;1.90;;
15383;SDS011;7790;53.022;12.968;2024-01-30T03:22:12;2.30;;;2.20;;
15383;SDS011;7790;53.022;12.968;2024-01-30T03:26:13;2.10;;;1.90;;
15383;SDS011;7790;53.022;12.968;2024-01-30T03:30:15;1.90;;;1.80;;
15383;SDS011;7790;53.022;12.968;2024-01-30T03:34:16;1.93;;;1.80;;
15383;SDS011;7790;53.022;12.968;2024-01-30T03:38:17;2.60;;;2.27;;
15383;SDS011;7790;53.022;12.968;2024-01-30T03:42:18;2.97;;;2.30;;
15383;SDS011;7790;53.022;12.968;2024-01-30T03:46:19;2.57;;;2.03;;
15383;SDS011;7790;53.022;12.968;2024-01-30T03:50:20;3.10;;;2.00;;
15383;SDS011;7790;53.022;12.968;2024-01-30T03:54:20;2.40;;;2.20;;
15383;SDS011;7790;53.022;12.968;2024-01-30T03:58:22;1.90;;;1.80;;
15383;SDS011;7790;53.022;12.968;2024-01-30T04:02:23;2.20;;;1.93;;
15383;SDS011;7790;53.022;12.968;2024-01-30T04:06:24;2.50;;;2.10;;
15383;SDS011;7790;53.022;12.968;2024-01-30T04:10:25;2.00;;;1.80;;
15383;SDS011;7790;53.022;12.968;2024-01-30T04:14:25;2.10;;;1.90;;
15383;SDS011;7790;53.022;12.968;2024-01-30T04:18:27;1.90;;;1.80;;
15383;SDS011;7790;53.022;12.968;2024-01-30T04:22:28;2.00;;;1.90;;
15383;SDS011;7790;53.022;12.968;2024-01-30T04:26:29;2.17;;;1.47;;
15383;SDS011;7790;53.022;12.968;2024-01-30T04:30:29;2.27;;;1.87;;
15383;SDS011;7790;53.022;12.968;2024-01-30T04:34:30;2.10;;;1.73;;
15383;SDS011;7790;53.022;12.968;2024-01-30T04:38:31;4.53;;;2.20;;
15383;SDS011;7790;53.022;12.968;2024-01-30T04:42:32;4.97;;;2.50;;
15383;SDS011;7790;53.022;12.968;2024-01-30T04:46:33;2.67;;;2.17;;
15383;SDS011;7790;53.022;12.968;2024-01-30T04:50:37;2.70;;;2.40;;
15383;SDS011;7790;53.022;12.968;2024-01-30T04:54:37;2.37;;;2.17;;
15383;SDS011;7790;53.022;12.968;2024-01-30T04:58:39;2.80;;;2.20;;
15383;SDS011;7790;53.022;12.968;2024-01-30T05:02:40;2.33;;;2.10;;
15383;SDS011;7790;53.022;12.968;2024-01-30T05:06:40;2.20;;;2.10;;
15383;SDS011;7790;53.022;12.968;2024-01-30T05:10:41;4.20;;;2.00;;
15383;SDS011;7790;53.022;12.968;2024-01-30T05:14:42;2.67;;;2.20;;
15383;SDS011;7790;53.022;12.968;2024-01-30T05:18:43;2.43;;;2.20;;
15383;SDS011;7790;53.022;12.968;2024-01-30T05:22:44;2.20;;;2.00;;
15383;SDS011;7790;53.022;12.968;2024-01-30T05:26:45;3.87;;;2.10;;
15383;SDS011;7790;53.022;12.968;2024-01-30T05:30:47;2.70;;;2.33;;
15383;SDS011;7790;53.022;12.968;2024-01-30T05:34:48;2.00;;;1.90;;
15383;SDS011;7790;53.022;12.968;2024-01-30T05:38:50;5.53;;;2.23;;
15383;SDS011;7790;53.022;12.968;2024-01-30T05:42:51;2.83;;;2.30;;
15383;SDS011;7790;53.022;12.968;2024-01-30T05:46:52;2.47;;;2.27;;
15383;SDS011;7790;53.022;12.968;2024-01-30T05:50:53;3.17;;;1.90;;
15383;SDS011;7790;53.022;12.968;2024-01-30T05:54:55;2.63;;;2.20;;
15383;SDS011;7790;53.022;12.968;2024-01-30T05:58:56;2.60;;;2.17;;
15383;SDS011;7790;53.022;12.968;2024-01-30T06:02:57;2.40;;;2.20;;
15383;SDS011;7790;53.022;12.968;2024-01-30T06:06:58;2.83;;;2.07;;
15383;SDS011;7790;53.022;12.968;2024-01-30T06:11:02;2.80;;;2.27;;
15383;SDS011;7790;53.022;12.968;2024-01-30T06:15:02;2.53;;;2.33;;
15383;SDS011;7790;53.022;12.968;2024-01-30T06:19:04;2.30;;;2.10;;
15383;SDS011;7790;53.022;12.968;2024-01-30T06:23:06;2.50;;;2.30;;
15383;SDS011;7790;53.022;12.968;2024-01-30T06:27:06;2.23;;;2.07;;
15383;SDS011;7790;53.022;12.968;2024-01-30T06:31:07;2.47;;;2.27;;
15383;SDS011;7790;53.022;12.968;2024-01-30T06:35:08;2.20;;;2.00;;
15383;SDS011;7790;53.022;12.968;2024-01-30T06:39:10;3.20;;;1.83;;
15383;SDS011;7790;53.022;12.968;2024-01-30T06:43:11;2.23;;;2.03;;
15383;SDS011;7790;53.022;12.968;2024-01-30T06:47:12;2.30;;;2.10;;
15383;SDS011;7790;53.022;12.968;2024-01-30T06:51:14;2.27;;;2.07;;
15383;SDS011;7790;53.022;12.968;2024-01-30T06:55:15;2.40;;;2.20;;
15383;SDS011;7790;53.022;12.968;2024-01-30T06:59:15;2.17;;;2.00;;
15383;SDS011;7790;53.022;12.968;2024-01-30T07:03:16;4.63;;;2.40;;
15383;SDS011;7790;53.022;12.968;2024-01-30T07:07:17;2.97;;;1.90;;
15383;SDS011;7790;53.022;12.968;2024-01-30T07:11:18;2.30;;;2.10;;
15383;SDS011;7790;53.022;12.968;2024-01-30T07:15:22;2.90;;;2.23;;
15383;SDS011;7790;53.022;12.968;2024-01-30T07:19:23;2.83;;;2.50;;
15383;SDS011;7790;53.022;12.968;2024-01-30T07:23:24;2.40;;;2.20;;
15383;SDS011;7790;53.022;12.968;2024-01-30T07:27:25;3.43;;;2.20;;
15383;SDS011;7790;53.022;12.968;2024-01-30T07:31:26;2.40;;;2.20;;
15383;SDS011;7790;53.022;12.968;2024-01-30T07:35:26;2.20;;;2.00;;
15383;SDS011;7790;53.022;12.968;2024-01-30T07:39:28;2.20;;;2.00;;
15383;SDS011;7790;53.022;12.968;2024-01-30T07:43:28;2.87;;;2.40;;
15383;SDS011;7790;53.022;12.968;2024-01-30T07:47:29;4.80;;;2.40;;
15383;SDS011;7790;53.022;12.968;2024-01-30T07:51:30;3.23;;;2.90;;
15383;SDS011;7790;53.022;12.968;2024-01-30T07:55:33;4.73;;;3.27;;
15383;SDS011;7790;53.022;12.968;2024-01-30T07:59:33;11.13;;;3.27;;
15383;SDS011;7790;53.022;12.968;2024-01-30T08:03:34;7.90;;;3.13;;
15383;SDS011;7790;53.022;12.968;2024-01-30T08:07:36;4.77;;;2.77;;
15383;SDS011;7790;53.022;12.968;2024-01-30T08:11:37;3.40;;;2.60;;
15383;SDS011;7790;53.022;12.968;2024-01-30T08:15:38;4.70;;;2.40;;
15383;SDS011;7790;53.022;12.968;2024-01-30T08:19:38;3.67;;;2.50;;
15383;SDS011;7790;53.022;12.968;2024-01-30T08:23:39;6.13;;;2.80;;
15383;SDS011;7790;53.022;12.968;2024-01-30T08:27:40;6.30;;;2.80;;
15383;SDS011;7790;53.022;12.968;2024-01-30T08:31:44;3.00;;;2.67;;
15383;SDS011;7790;53.022;12.968;2024-01-30T08:35:46;3.07;;;2.60;;
15383;SDS011;7790;53.022;12.968;2024-01-30T08:39:48;4.17;;;2.80;;
15383;SDS011;7790;53.022;12.968;2024-01-30T08:43:49;5.00;;;2.73;;
15383;SDS011;7790;53.022;12.968;2024-01-30T08:47:50;4.60;;;2.50;;
15383;SDS011;7790;53.022;12.968;2024-01-30T08:51:50;5.40;;;2.70;;
15383;SDS011;7790;53.022;12.968;2024-01-30T08:55:51;4.23;;;2.73;;
15383;SDS011;7790;53.022;12.968;2024-01-30T08:59:52;3.67;;;2.43;;
15383;SDS011;7790;53.022;12.968;2024-01-30T09:03:53;3.43;;;2.33;;
15383;SDS011;7790;53.022;12.968;2024-01-30T09:07:54;4.70;;;2.50;;
15383;SDS011;7790;53.022;12.968;2024-01-30T09:11:55;3.07;;;2.77;;
15383;SDS011;7790;53.022;12.968;2024-01-30T09:15:56;2.67;;;2.30;;
15383;SDS011;7790;53.022;12.968;2024-01-30T09:19:57;2.13;;;2.03;;
15383;SDS011;7790;53.022;12.968;2024-01-30T09:24:01;2.83;;;2.37;;
15383;SDS011;7790;53.022;12.968;2024-01-30T09:28:06;3.60;;;2.50;;
15383;SDS011;7790;53.022;12.968;2024-01-30T09:32:07;2.37;;;2.23;;
15383;SDS011;7790;53.022;12.968;2024-01-30T09:36:09;2.93;;;2.40;;
15383;SDS011;7790;53.022;12.968;2024-01-30T09:40:10;3.10;;;2.53;;
15383;SDS011;7790;53.022;12.968;2024-01-30T09:44:11;2.23;;;2.03;;
15383;SDS011;7790;53.022;12.968;2024-01-30T09:48:12;2.83;;;2.40;;
15383;SDS011;7790;53.022;12.968;2024-01-30T09:52:13;2.80;;;2.23;;
15383;SDS011;7790;53.022;12.968;2024-01-30T09:56:15;2.30;;;2.10;;
15383;SDS011;7790;53.022;12.968;2024-01-30T10:00:17;2.43;;;2.23;;
15383;SDS011;7790;53.022;12.968;2024-01-30T10:04:18;2.83;;;2.50;;
15383;SDS011;7790;53.022;12.968;2024-01-30T10:08:18;2.50;;;2.30;;
15383;SDS011;7790;53.022;12.968;2024-01-30T10:12:19;2.33;;;2.13;;
15383;SDS011;7790;53.022;12.968;2024-01-30T10:16:20;2.33;;;2.13;;
15383;SDS011;7790;53.022;12.968;2024-01-30T10:20:21;2.47;;;2.23;;
15383;SDS011;7790;53.022;12.968;2024-01-30T10:24:26;2.50;;;2.30;;
15383;SDS011;7790;53.022;12.968;2024-01-30T10:28:27;3.33;;;2.60;;
15383;SDS011;7790;53.022;12.968;2024-01-30T10:32:29;2.97;;;2.33;;
15383;SDS011;7790;53.022;12.968;2024-01-30T10:36:30;2.43;;;2.23;;
15383;SDS011;7790;53.022;12.968;2024-01-30T10:40:39;2.40;;;2.20;;
15383;SDS011;7790;53.022;12.968;2024-01-30T10:45:05;3.87;;;2.20;;
15383;SDS011;7790;53.022;12.968;2024-01-30T10:49:10;2.53;;;2.33;;
15383;SDS011;7790;53.022;12.968;2024-01-30T10:53:11;4.73;;;2.40;;
15383;SDS011;7790;53.022;12.968;2024-01-30T10:57:13;6.00;;;2.47;;
15383;SDS011;7790;53.022;12.968;2024-01-30T11:01:17;6.43;;;2.47;;
15383;SDS011;7790;53.022;12.968;2024-01-30T11:05:23;3.23;;;2.63;;
15383;SDS011;7790;53.022;12.968;2024-01-30T11:09:28;8.00;;;2.67;;
15383;SDS011;7790;53.022;12.968;2024-01-30T11:13:30;5.33;;;2.70;;
15383;SDS011;7790;53.022;12.968;2024-01-30T11:17:50;2.50;;;2.30;;
15383;SDS011;7790;53.022;12.968;2024-01-30T11:21:53;2.87;;;2.13;;
15383;SDS011;7790;53.022;12.968;2024-01-30T11:25:55;2.20;;;2.00;;
15383;SDS011;7790;53.022;12.968;2024-01-30T11:30:01;3.30;;;2.13;;
15383;SDS011;7790;53.022;12.968;2024-01-30T11:34:05;2.53;;;2.33;;
15383;SDS011;7790;53.022;12.968;2024-01-30T11:38:08;3.37;;;2.20;;
15383;SDS011;7790;53.022;12.968;2024-01-30T11:42:09;2.37;;;2.13;;
15383;SDS011;7790;53.022;12.968;2024-01-30T11:46:11;2.50;;;2.07;;
15383;SDS011;7790;53.022;12.968;2024-01-30T11:50:12;3.77;;;2.27;;
15383;SDS011;7790;53.022;12.968;2024-01-30T11:54:14;4.30;;;2.00;;
15383;SDS011;7790;53.022;12.968;2024-01-30T11:58:18;2.40;;;2.17;;
15383;SDS011;7790;53.022;12.968;2024-01-30T12:02:19;2.20;;;2.00;;
15383;SDS011;7790;53.022;12.968;2024-01-30T12:06:19;2.20;;;2.00;;
15383;SDS011;7790;53.022;12.968;2024-01-30T12:10:21;2.30;;;1.90;;
15383;SDS011;7790;53.022;12.968;2024-01-30T12:14:22;2.40;;;2.20;;
15383;SDS011;7790;53.022;12.968;2024-01-30T12:18:25;1.83;;;1.73;;
15383;SDS011;7790;53.022;12.968;2024-01-30T12:22:26;2.20;;;2.00;;
15383;SDS011;7790;53.022;12.968;2024-01-30T12:26:26;2.33;;;2.10;;
15383;SDS011;7790;53.022;12.968;2024-01-30T12:30:28;2.83;;;2.10;;
15383;SDS011;7790;53.022;12.968;2024-01-30T12:34:29;1.97;;;1.73;;
15383;SDS011;7790;53.022;12.968;2024-01-30T12:38:30;1.90;;;1.80;;
15383;SDS011;7790;53.022;12.968;2024-01-30T12:42:31;2.30;;;1.90;;
15383;SDS011;7790;53.022;12.968;2024-01-30T12:46:36;2.10;;;1.87;;
15383;SDS011;7790;53.022;12.968;2024-01-30T12:50:36;1.97;;;1.70;;
15383;SDS011;7790;53.022;12.968;2024-01-30T12:54:37;2.10;;;1.90;;
15383;SDS011;7790;53.022;12.968;2024-01-30T12:58:38;2.27;;;1.80;;
15383;SDS011;7790;53.022;12.968;2024-01-30T13:02:39;2.27;;;2.07;;
15383;SDS011;7790;53.022;12.968;2024-01-30T13:06:40;1.87;;;1.77;;
15383;SDS011;7790;53.022;12.968;2024-01-30T13:10:41;2.00;;;1.80;;
15383;SDS011;7790;53.022;12.968;2024-01-30T13:14:42;2.17;;;1.97;;
15383;SDS011;7790;53.022;12.968;2024-01-30T13:18:44;2.10;;;1.90;;
15383;SDS011;7790;53.022;12.968;2024-01-30T13:22:44;1.80;;;1.70;;
15383;SDS011;7790;53.022;12.968;2024-01-30T13:26:47;1.97;;;1.87;;
15383;SDS011;7790;53.022;12.968;2024-01-30T13:30:49;1.53;;;1.43;;
15383;SDS011;7790;53.022;12.968;2024-01-30T13:34:49;1.80;;;1.70;;
15383;SDS011;7790;53.022;12.968;2024-01-30T13:38:50;1.70;;;1.60;;
15383;SDS011;7790;53.022;12.968;2024-01-30T13:42:51;1.77;;;1.67;;
15383;SDS011;7790;53.022;12.968;2024-01-30T13:46:52;1.80;;;1.70;;
15383;SDS011;7790;53.022;12.968;2024-01-30T13:50:55;1.80;;;1.70;;
15383;SDS011;7790;53.022;12.968;2024-01-30T13:54:56;1.67;;;1.57;;
15383;SDS011;7790;53.022;12.968;2024-01-30T13:58:56;1.70;;;1.60;;
15383;SDS011;7790;53.022;12.968;2024-01-30T14:02:57;1.83;;;1.70;;
15383;SDS011;7790;53.022;12.968;2024-01-30T14:06:59;3.47;;;1.80;;
15383;SDS011;7790;53.022;12.968;2024-01-30T14:11:00;1.80;;;1.70;;
15383;SDS011;7790;53.022;12.968;2024-01-30T14:15:01;1.80;;;1.70;;
15383;SDS011;7790;53.022;12.968;2024-01-30T14:19:01;1.70;;;1.60;;
15383;SDS011;7790;53.022;12.968;2024-01-30T14:23:02;1.80;;;1.70;;
15383;SDS011;7790;53.022;12.968;2024-01-30T14:27:03;1.67;;;1.57;;
15383;SDS011;7790;53.022;12.968;2024-01-30T14:31:04;1.77;;;1.67;;
15383;SDS011;7790;53.022;12.968;2024-01-30T14:35:06;1.93;;;1.83;;
15383;SDS011;7790;53.022;12.968;2024-01-30T14:39:09;1.63;;;1.53;;
15383;SDS011;7790;53.022;12.968;2024-01-30T14:43:09;1.60;;;1.40;;
15383;SDS011;7790;53.022;12.968;2024-01-30T14:47:10;1.87;;;1.77;;
15383;SDS011;7790;53.022;12.968;2024-01-30T14:51:13;1.90;;;1.70;;
15383;SDS011;7790;53.022;12.968;2024-01-30T14:55:14;1.83;;;1.73;;
15383;SDS011;7790;53.022;12.968;2024-01-30T14:59:15;3.70;;;1.70;;
15383;SDS011;7790;53.022;12.968;2024-01-30T15:03:16;3.27;;;1.80;;
15383;SDS011;7790;53.022;12.968;2024-01-30T15:07:17;2.40;;;1.60;;
15383;SDS011;7790;53.022;12.968;2024-01-30T15:11:18;5.77;;;1.80;;
15383;SDS011;7790;53.022;12.968;2024-01-30T15:15:19;3.17;;;2.00;;
15383;SDS011;7790;53.022;12.968;2024-01-30T15:19:19;1.93;;;1.77;;
15383;SDS011;7790;53.022;12.968;2024-01-30T15:23:20;2.03;;;1.60;;
15383;SDS011;7790;53.022;12.968;2024-01-30T15:27:22;1.80;;;1.70;;
15383;SDS011;7790;53.022;12.968;2024-01-30T15:31:23;2.37;;;1.60;;
15383;SDS011;7790;53.022;12.968;2024-01-30T15:35:24;3.27;;;1.73;;
15383;SDS011;7790;53.022;12.968;2024-01-30T15:39:25;3.20;;;1.67;;
15383;SDS011;7790;53.022;12.968;2024-01-30T15:43:26;1.53;;;1.43;;
15383;SDS011;7790;53.022;12.968;2024-01-30T15:47:27;2.13;;;1.60;;
15383;SDS011;7790;53.022;12.968;2024-01-30T15:51:28;1.53;;;1.43;;
15383;SDS011;7790;53.022;12.968;2024-01-30T15:55:29;2.47;;;1.80;;
15383;SDS011;7790;53.022;12.968;2024-01-30T15:59:30;4.77;;;1.60;;
15383;SDS011;7790;53.022;12.968;2024-01-30T16:03:31;2.10;;;1.53;;
15383;SDS011;7790;53.022;12.968;2024-01-30T16:07:32;1.80;;;1.50;;
15383;SDS011;7790;53.022;12.968;2024-01-30T16:11:33;2.27;;;1.80;;
15383;SDS011;7790;53.022;12.968;2024-01-30T16:15:33;3.27;;;1.80;;
15383;SDS011;7790;53.022;12.968;2024-01-30T16:19:34;1.50;;;1.40;;
15383;SDS011;7790;53.022;12.968;2024-01-30T16:23:36;1.50;;;1.40;;
15383;SDS011;7790;53.022;12.968;2024-01-30T16:27:37;1.73;;;1.63;;
15383;SDS011;7790;53.022;12.968;2024-01-30T16:31:38;1.60;;;1.50;;
15383;SDS011;7790;53.022;12.968;2024-01-30T16:35:39;1.67;;;1.57;;
15383;SDS011;7790;53.022;12.968;2024-01-30T16:39:41;2.23;;;1.53;;
15383;SDS011;7790;53.022;12.968;2024-01-30T16:43:43;3.40;;;1.53;;
15383;SDS011;7790;53.022;12.968;2024-01-30T16:47:44;1.60;;;1.50;;
15383;SDS011;7790;53.022;12.968;2024-01-30T16:51:45;1.70;;;1.60;;
15383;SDS011;7790;53.022;12.968;2024-01-30T16:55:46;1.70;;;1.60;;
15383;SDS011;7790;53.022;12.968;2024-01-30T16:59:47;1.80;;;1.67;;
15383;SDS011;7790;53.022;12.968;2024-01-30T17:03:49;1.67;;;1.57;;
15383;SDS011;7790;53.022;12.968;2024-01-30T17:07:50;1.97;;;1.60;;
15383;SDS011;7790;53.022;12.968;2024-01-30T17:11:51;1.90;;;1.50;;
15383;SDS011;7790;53.022;12.968;2024-01-30T17:15:52;1.50;;;1.40;;
15383;SDS011;7790;53.022;12.968;2024-01-30T17:19:53;1.70;;;1.60;;
15383;SDS011;7790;53.022;12.968;2024-01-30T17:23:53;3.70;;;2.03;;
15383;SDS011;7790;53.022;12.968;2024-01-30T17:27:54;1.37;;;1.27;;
15383;SDS011;7790;53.022;12.968;2024-01-30T17:31:57;2.63;;;1.77;;
15383;SDS011;7790;53.022;12.968;2024-01-30T17:35:58;2.13;;;1.60;;
15383;SDS011;7790;53.022;12.968;2024-01-30T17:39:59;2.43;;;1.80;;
15383;SDS011;7790;53.022;12.968;2024-01-30T17:44:00;1.83;;;1.60;;
15383;SDS011;7790;53.022;12.968;2024-01-30T17:48:01;2.60;;;1.53;;
15383;SDS011;7790;53.022;12.968;2024-01-30T17:52:02;1.73;;;1.60;;
15383;SDS011;7790;53.022;12.968;2024-01-30T17:56:03;1.70;;;1.60;;
15383;SDS011;7790;53.022;12.968;2024-01-30T18:00:06;2.37;;;1.80;;
15383;SDS011;7790;53.022;12.968;2024-01-30T18:04:09;2.17;;;1.70;;
15383;SDS011;7790;53.022;12.968;2024-01-30T18:08:10;2.37;;;1.90;;
15383;SDS011;7790;53.022;12.968;2024-01-30T18:12:11;1.60;;;1.50;;
15383;SDS011;7790;53.022;12.968;2024-01-30T18:16:12;2.07;;;1.70;;
15383;SDS011;7790;53.022;12.968;2024-01-30T18:20:13;1.73;;;1.63;;
15383;SDS011;7790;53.022;12.968;2024-01-30T18:24:14;2.13;;;1.53;;
15383;SDS011;7790;53.022;12.968;2024-01-30T18:28:15;2.10;;;1.90;;
15383;SDS011;7790;53.022;12.968;2024-01-30T18:32:16;1.80;;;1.70;;
15383;SDS011;7790;53.022;12.968;2024-01-30T18:36:17;1.73;;;1.63;;
15383;SDS011;7790;53.022;12.968;2024-01-30T18:40:19;2.13;;;1.93;;
15383;SDS011;7790;53.022;12.968;2024-01-30T18:44:20;2.20;;;2.00;;
15383;SDS011;7790;53.022;12.968;2024-01-30T18:48:21;2.60;;;1.57;;
15383;SDS011;7790;53.022;12.968;2024-01-30T18:52:22;1.90;;;1.80;;
15383;SDS011;7790;53.022;12.968;2024-01-30T18:56:23;2.17;;;1.90;;
15383;SDS011;7790;53.022;12.968;2024-01-30T19:00:24;1.90;;;1.80;;
15383;SDS011;7790;53.022;12.968;2024-01-30T19:04:25;2.80;;;2.40;;
15383;SDS011;7790;53.022;12.968;2024-01-30T19:08:25;2.60;;;2.00;;
15383;SDS011;7790;53.022;12.968;2024-01-30T19:12:27;2.07;;;1.97;;
15383;SDS011;7790;53.022;12.968;2024-01-30T19:16:28;2.80;;;2.37;;
15383;SDS011;7790;53.022;12.968;2024-01-30T19:20:29;5.97;;;2.10;;
15383;SDS011;7790;53.022;12.968;2024-01-30T19:24:30;2.27;;;2.03;;
15383;SDS011;7790;53.022;12.968;2024-01-30T19:28:31;3.07;;;2.03;;
15383;SDS011;7790;53.022;12.968;2024-01-30T19:32:32;3.70;;;2.20;;
15383;SDS011;7790;53.022;12.968;2024-01-30T19:36:33;3.87;;;2.00;;
15383;SDS011;7790;53.022;12.968;2024-01-30T19:40:36;2.60;;;2.30;;
15383;SDS011;7790;53.022;12.968;2024-01-30T19:44:37;3.07;;;1.87;;
15383;SDS011;7790;53.022;12.968;2024-01-30T19:48:39;2.30;;;2.10;;
15383;SDS011;7790;53.022;12.968;2024-01-30T19:52:41;2.47;;;2.17;;
15383;SDS011;7790;53.022;12.968;2024-01-30T19:56:43;2.47;;;1.97;;
15383;SDS011;7790;53.022;12.968;2024-01-30T20:00:44;2.93;;;1.90;;
15383;SDS011;7790;53.022;12.968;2024-01-30T20:04:46;2.20;;;2.00;;
15383;SDS011;7790;53.022;12.968;2024-01-30T20:08:47;2.30;;;2.10;;
15383;SDS011;7790;53.022;12.968;2024-01-30T20:12:48;2.30;;;1.80;;
15383;SDS011;7790;53.022;12.968;2024-01-30T20:16:50;2.27;;;1.80;;
15383;SDS011;7790;53.022;12.968;2024-01-30T20:20:51;2.03;;;1.90;;
15383;SDS011;7790;53.022;12.968;2024-01-30T20:24:53;2.77;;;2.00;;
15383;SDS011;7790;53.022;12.968;2024-01-30T20:28:54;2.37;;;1.90;;
15383;SDS011;7790;53.022;12.968;2024-01-30T20:32:55;2.30;;;2.10;;
15383;SDS011;7790;53.022;12.968;2024-01-30T20:36:55;2.13;;;2.00;;
15383;SDS011;7790;53.022;12.968;2024-01-30T20:40:56;3.23;;;2.00;;
15383;SDS011;7790;53.022;12.968;2024-01-30T20:44:57;2.27;;;1.90;;
15383;SDS011;7790;53.022;12.968;2024-01-30T20:48:58;2.20;;;2.00;;
15383;SDS011;7790;53.022;12.968;2024-01-30T20:52:59;2.33;;;2.17;;
15383;SDS011;7790;53.022;12.968;2024-01-30T20:57:00;1.90;;;1.80;;
15383;SDS011;7790;53.022;12.968;2024-01-30T21:01:01;2.30;;;2.10;;
15383;SDS011;7790;53.022;12.968;2024-01-30T21:05:02;2.50;;;2.00;;
15383;SDS011;7790;53.022;12.968;2024-01-30T21:09:03;2.13;;;1.93;;
15383;SDS011;7790;53.022;12.968;2024-01-30T21:13:04;1.97;;;1.87;;
15383;SDS011;7790;53.022;12.968;2024-01-30T21:17:05;2.50;;;1.80;;
15383;SDS011;7790;53.022;12.968;2024-01-30T21:21:07;2.57;;;2.20;;
15383;SDS011;7790;53.022;12.968;2024-01-30T21:25:08;2.33;;;2.13;;
15383;SDS011;7790;53.022;12.968;2024-01-30T21:29:09;2.10;;;2.00;;
15383;SDS011;7790;53.022;12.968;2024-01-30T21:33:10;1.70;;;1.60;;
15383;SDS011;7790;53.022;12.968;2024-01-30T21:37:10;2.30;;;2.10;;
15383;SDS011;7790;53.022;12.968;2024-01-30T21:41:13;2.30;;;2.10;;
15383;SDS011;7790;53.022;12.968;2024-01-30T21:45:15;2.20;;;2.00;;
15383;SDS011;7790;53.022;12.968;2024-01-30T21:49:16;2.07;;;1.97;;
15383;SDS011;7790;53.022;12.968;2024-01-30T21:53:17;2.23;;;1.80;;
15383;SDS011;7790;53.022;12.968;2024-01-30T21:57:18;2.17;;;2.03;;
15383;SDS011;7790;53.022;12.968;2024-01-30T22:01:19;2.57;;;2.10;;
15383;SDS011;7790;53.022;12.968;2024-01-30T22:05:20;2.03;;;1.90;;
15383;SDS011;7790;53.022;12.968;2024-01-30T22:09:21;2.00;;;1.90;;
15383;SDS011;7790;53.022;12.968;2024-01-30T22:13:22;2.23;;;1.93;;
15383;SDS011;7790;53.022;12.968;2024-01-30T22:17:24;3.03;;;2.00;;
15383;SDS011;7790;53.022;12.968;2024-01-30T22:21:25;2.07;;;1.83;;
15383;SDS011;7790;53.022;12.968;2024-01-30T22:25:26;2.17;;;1.97;;
15383;SDS011;7790;53.022;12.968;2024-01-30T22:29:27;1.90;;;1.80;;
15383;SDS011;7790;53.022;12.968;2024-01-30T22:33:28;2.67;;;1.90;;
15383;SDS011;7790;53.022;12.968;2024-01-30T22:37:28;2.37;;;1.90;;
15383;SDS011;7790;53.022;12.968;2024-01-30T22:41:29;2.23;;;2.03;;
15383;SDS011;7790;53.022;12.968;2024-01-30T22:45:30;2.00;;;1.90;;
15383;SDS011;7790;53.022;12.968;2024-01-30T22:49:31;2.27;;;2.07;;
15383;SDS011;7790;53.022;12.968;2024-01-30T22:53:32;2.10;;;1.90;;
15383;SDS011;7790;53.022;12.968;2024-01-30T22:57:34;2.00;;;1.80;;
15383;SDS011;7790;53.022;12.968;2024-01-30T23:01:37;2.80;;;2.00;;
15383;SDS011;7790;53.022;12.968;2024-01-30T23:05:40;2.17;;;2.00;;
15383;SDS011;7790;53.022;12.968;2024-01-30T23:09:41;2.20;;;2.00;;
15383;SDS011;7790;53.022;12.968;2024-01-30T23:13:42;2.00;;;1.90;;
15383;SDS011;7790;53.022;12.968;2024-01-30T23:17:43;2.00;;;1.90;;
15383;SDS011;7790;53.022;12.968;2024-01-30T23:21:44;2.30;;;2.10;;
15383;SDS011;7790;53.022;12.968;2024-01-30T23:25:45;2.70;;;1.97;;
15383;SDS011;7790;53.022;12.968;2024-01-30T23:29:46;1.73;;;1.63;;
15383;SDS011;7790;53.022;12.968;2024-01-30T23:33:47;2.30;;;2.10;;
15383;SDS011;7790;53.022;12.968;2024-01-30T23:37:48;1.70;;;1.60;;
15383;SDS011;7790;53.022;12.968;2024-01-30T23:41:48;2.10;;;1.97;;
15383;SDS011;7790;53.022;12.968;2024-01-30T23:45:49;1.80;;;1.70;;
15383;SDS011;7790;53.022;12.968;2024-01-30T23:49:50;1.97;;;1.77;;
15383;SDS011;7790;53.022;12.968;2024-01-30T23:53:51;1.90;;;1.80;;
15383;SDS011;7790;53.022;12.968;2024-01-30T23:57:52;1.90;;;1.80;;
